Time;durP1;ratioP1;P1;durP2;ratioP2;P2;SDS_P1;SDS_P2;PMS_P1;PMS_P2;Temp;Humidity;BMP_temperature;BMP_pressure;BME280_temperature;BME280_humidity;BME280_pressure;Samples;Min_cycle;Max_cycle;Signal;HPM_P1;HPM_P2
2023/08/16 00:02:17;;;;;;;19.23;13.88;;;21.60;99.90;;;;;;5011601;28;20443;-53
2023/08/16 00:04:43;;;;;;;15.15;13.55;;;21.80;99.90;;;;;;4997304;28;20082;-52
2023/08/16 00:07:09;;;;;;;15.25;13.73;;;;;;;;;;4996711;28;20121;-50
2023/08/16 00:09:35;;;;;;;14.52;13.13;;;22.10;99.90;;;;;;4996896;28;20061;-54
2023/08/16 00:12:01;;;;;;;14.57;13.02;;;22.00;99.90;;;;;;4997391;28;20030;-52
2023/08/16 00:14:26;;;;;;;13.93;12.52;;;22.10;99.90;;;;;;4996912;28;20034;-54
2023/08/16 00:16:54;;;;;;;14.73;13.05;;;22.30;99.90;;;;;;4996659;28;20034;-52
2023/08/16 00:19:19;;;;;;;14.55;12.85;;;22.40;99.90;;;;;;4996688;28;20041;-52
2023/08/16 00:21:45;;;;;;;14.20;12.70;;;22.30;99.90;;;;;;4996495;28;20038;-54
2023/08/16 00:24:11;;;;;;;15.80;13.60;;;22.30;99.90;;;;;;5010793;28;20100;-54
2023/08/16 00:26:37;;;;;;;14.50;13.05;;;22.30;99.90;;;;;;4996987;28;20050;-54
2023/08/16 00:29:03;;;;;;;15.55;13.75;;;22.30;99.90;;;;;;4994560;28;20042;-52
2023/08/16 00:31:29;;;;;;;14.95;13.55;;;22.40;99.90;;;;;;4996680;28;20042;-52
2023/08/16 00:33:54;;;;;;;15.32;13.73;;;22.30;99.90;;;;;;4978173;28;20034;-50
2023/08/16 00:36:20;;;;;;;21.52;13.85;;;22.30;99.90;;;;;;4996235;28;20125;-53
2023/08/16 00:38:46;;;;;;;15.52;13.95;;;22.30;99.90;;;;;;4994431;28;20085;-50
2023/08/16 00:41:13;;;;;;;16.17;14.48;;;22.30;99.90;;;;;;4996254;28;20038;-51
2023/08/16 00:43:39;;;;;;;16.55;13.50;;;22.20;99.90;;;;;;4995536;28;20125;-49
2023/08/16 00:46:11;;;;;;;14.75;13.05;;;22.30;99.90;;;;;;4996471;28;20034;-50
2023/08/16 00:48:38;;;;;;;16.42;14.13;;;22.20;99.90;;;;;;4996273;28;20074;-55
2023/08/16 00:51:06;;;;;;;15.35;13.77;;;22.10;99.90;;;;;;4996348;28;20036;-53
2023/08/16 00:53:33;;;;;;;16.02;13.23;;;21.80;99.90;;;;;;4995881;28;20437;-53
2023/08/16 00:55:59;;;;;;;15.60;13.20;;;21.90;99.90;;;;;;4996328;28;20077;-52
2023/08/16 00:58:26;;;;;;;16.45;14.40;;;21.90;99.90;;;;;;4995819;28;20129;-52
2023/08/16 01:00:52;;;;;;;17.33;14.32;;;22.00;99.90;;;;;;4995901;28;20030;-52
2023/08/16 01:03:18;;;;;;;14.43;12.93;;;22.00;99.90;;;;;;4995720;28;20030;-52
2023/08/16 01:05:43;;;;;;;16.60;14.70;;;22.10;99.90;;;;;;4993850;28;20081;-51
2023/08/16 01:08:10;;;;;;;17.27;14.80;;;22.00;99.90;;;;;;4995452;28;20093;-51
2023/08/16 01:10:53;;;;;;;15.23;13.57;;;21.90;99.90;;;;;;4995721;28;20045;-51
2023/08/16 01:13:46;;;;;;;15.50;13.48;;;22.00;99.90;;;;;;4996135;28;20018;-50
2023/08/16 01:16:11;;;;;;;15.23;13.52;;;22.00;99.90;;;;;;4995701;28;20053;-53
2023/08/16 01:18:40;;;;;;;15.48;13.98;;;22.10;99.90;;;;;;4995807;28;20486;-53
2023/08/16 01:21:08;;;;;;;16.08;14.00;;;22.10;99.90;;;;;;4996006;28;20134;-50
2023/08/16 01:23:46;;;;;;;15.85;13.25;;;22.10;99.90;;;;;;4995423;28;20057;-51
2023/08/16 01:26:29;;;;;;;17.35;13.40;;;22.10;99.90;;;;;;4995674;28;20382;-54
2023/08/16 01:28:57;;;;;;;15.15;13.63;;;22.00;99.90;;;;;;4995496;28;20023;-53
2023/08/16 01:31:23;;;;;;;15.25;13.60;;;22.10;99.90;;;;;;4995447;28;20031;-50
2023/08/16 01:33:49;;;;;;;17.98;12.32;;;22.10;99.90;;;;;;4995318;28;20047;-52
2023/08/16 01:36:14;;;;;;;13.88;12.25;;;22.00;99.90;;;;;;4991972;28;20034;-53
2023/08/16 01:38:40;;;;;;;15.60;12.18;;;22.00;99.90;;;;;;4993397;28;20041;-52
2023/08/16 01:41:13;;;;;;;14.32;12.00;;;22.10;99.90;;;;;;4976708;28;20038;-51
2023/08/16 01:43:43;;;;;;;13.23;11.82;;;22.20;99.90;;;;;;4992728;28;20038;-52
2023/08/16 01:46:10;;;;;;;13.10;11.32;;;22.20;99.90;;;;;;4992938;28;20041;-52
2023/08/16 01:48:38;;;;;;;12.20;10.93;;;22.20;99.90;;;;;;4992619;28;20022;-54
2023/08/16 01:51:05;;;;;;;13.02;11.82;;;22.30;99.90;;;;;;4976721;28;20509;-54
2023/08/16 01:53:33;;;;;;;14.15;11.63;;;22.30;99.90;;;;;;4975990;28;20027;-56
2023/08/16 01:56:00;;;;;;;15.55;11.25;;;22.30;99.90;;;;;;4976218;28;20038;-52
2023/08/16 01:58:26;;;;;;;13.80;12.07;;;22.30;99.90;;;;;;4976224;28;20496;-54
2023/08/16 02:00:52;;;;;;;12.88;10.93;;;22.50;99.90;;;;;;4992618;28;20039;-56
2023/08/16 02:03:18;;;;;;;12.90;11.50;;;22.40;99.90;;;;;;4992332;28;20561;-53
2023/08/16 02:05:43;;;;;;;13.60;12.23;;;22.50;99.90;;;;;;4992430;28;20110;-57
2023/08/16 02:08:13;;;;;;;14.40;12.68;;;22.40;99.90;;;;;;4992269;28;20145;-52
2023/08/16 02:10:39;;;;;;;14.68;12.52;;;22.40;99.90;;;;;;4972617;28;20505;-52
2023/08/16 02:13:05;;;;;;;14.30;12.80;;;22.40;99.90;;;;;;4974551;28;20084;-52
2023/08/16 02:15:31;;;;;;;14.65;13.20;;;22.40;99.90;;;;;;4992386;28;20054;-53
2023/08/16 02:17:57;;;;;;;17.58;13.30;;;22.40;99.90;;;;;;4976131;28;20034;-55
2023/08/16 02:20:22;;;;;;;16.15;13.70;;;22.40;99.90;;;;;;4992291;28;20034;-53
2023/08/16 02:22:48;;;;;;;15.45;13.43;;;22.40;99.90;;;;;;4992232;28;20064;-50
2023/08/16 02:25:14;;;;;;;16.33;13.68;;;22.40;99.90;;;;;;4975944;28;20433;-53
2023/08/16 02:27:40;;;;;;;16.48;13.30;;;22.40;99.90;;;;;;4992111;28;20039;-54
2023/08/16 02:30:07;;;;;;;15.10;13.60;;;22.30;99.90;;;;;;4991703;28;20104;-54
2023/08/16 02:32:36;;;;;;;14.82;13.43;;;22.20;99.90;;;;;;4940274;28;20069;-53
2023/08/16 02:35:03;;;;;;;15.65;13.68;;;22.20;99.90;;;;;;4972346;28;20081;-53
2023/08/16 02:37:30;;;;;;;14.80;13.38;;;22.20;99.90;;;;;;4972500;28;20070;-53
2023/08/16 02:39:55;;;;;;;16.38;14.77;;;22.20;99.90;;;;;;4972380;28;20034;-54
2023/08/16 02:42:21;;;;;;;15.77;14.15;;;22.20;99.90;;;;;;4988026;28;20374;-54
2023/08/16 02:44:47;;;;;;;16.27;14.68;;;22.20;99.90;;;;;;4991895;28;20185;-51
2023/08/16 02:47:13;;;;;;;17.83;15.32;;;22.20;99.90;;;;;;4975820;28;20520;-52
2023/08/16 02:49:39;;;;;;;15.88;14.38;;;22.10;99.90;;;;;;4991755;28;20462;-54
2023/08/16 02:52:05;;;;;;;19.83;14.30;;;22.10;99.90;;;;;;4991822;28;20113;-54
2023/08/16 02:54:30;;;;;;;17.80;14.88;;;22.10;99.90;;;;;;4991887;28;20038;-52
2023/08/16 02:56:56;;;;;;;16.17;14.52;;;22.10;99.90;;;;;;4991953;28;20379;-52
2023/08/16 02:59:22;;;;;;;16.35;14.65;;;22.10;99.90;;;;;;4991603;28;20140;-55
2023/08/16 03:01:48;;;;;;;17.83;15.32;;;22.20;99.90;;;;;;4991873;28;20586;-54
2023/08/16 03:04:15;;;;;;;20.25;15.55;;;22.10;99.90;;;;;;4991734;28;20145;-51
2023/08/16 03:06:41;;;;;;;17.42;14.18;;;22.10;99.90;;;;;;4997127;28;20108;-51
2023/08/16 03:09:06;;;;;;;16.65;13.85;;;22.10;99.90;;;;;;4998333;28;20081;-53
2023/08/16 03:11:32;;;;;;;16.95;15.20;;;22.10;99.90;;;;;;5000412;28;20037;-52
2023/08/16 03:13:58;;;;;;;20.65;15.20;;;22.10;99.90;;;;;;5000281;28;20030;-52
2023/08/16 03:16:23;;;;;;;17.73;15.13;;;22.10;99.90;;;;;;5000461;28;20027;-51
2023/08/16 03:18:49;;;;;;;17.13;15.40;;;22.10;99.90;;;;;;5000072;28;20109;-52
2023/08/16 03:21:15;;;;;;;17.58;15.82;;;22.10;99.90;;;;;;4998325;28;20093;-53
2023/08/16 03:23:41;;;;;;;17.77;16.00;;;22.10;99.90;;;;;;4999741;28;20046;-50
2023/08/16 03:26:06;;;;;;;17.48;15.00;;;22.10;99.90;;;;;;5014392;28;20046;-50
2023/08/16 03:28:32;;;;;;;18.10;14.65;;;22.10;99.90;;;;;;5014667;28;20034;-52
2023/08/16 03:30:58;;;;;;;17.67;15.77;;;22.10;99.90;;;;;;5000098;28;20028;-52
2023/08/16 03:33:23;;;;;;;18.60;16.67;;;22.10;99.90;;;;;;5000288;28;20026;-54
2023/08/16 03:35:49;;;;;;;18.02;16.15;;;22.00;99.90;;;;;;5015548;28;20026;-55
2023/08/16 03:38:15;;;;;;;17.40;15.73;;;22.00;99.90;;;;;;5000441;28;20034;-54
2023/08/16 03:40:41;;;;;;;17.08;14.48;;;22.00;99.90;;;;;;5000235;28;20092;-54
2023/08/16 03:43:06;;;;;;;17.15;15.25;;;22.10;99.90;;;;;;5014272;28;20371;-53
2023/08/16 03:45:32;;;;;;;17.10;15.30;;;22.00;99.90;;;;;;5014793;28;20034;-54
2023/08/16 03:47:58;;;;;;;16.83;14.75;;;22.00;99.90;;;;;;4981692;28;20030;-53
2023/08/16 03:50:24;;;;;;;16.60;15.00;;;22.00;99.90;;;;;;4998094;28;20034;-53
2023/08/16 03:52:50;;;;;;;17.35;15.65;;;22.00;99.90;;;;;;4998005;28;20042;-53
2023/08/16 03:55:16;;;;;;;16.00;14.48;;;22.00;99.90;;;;;;4999999;28;20370;-54
2023/08/16 03:57:42;;;;;;;17.45;15.68;;;22.00;99.90;;;;;;4999944;28;20027;-52
2023/08/16 04:00:11;;;;;;;18.73;15.25;;;22.10;99.90;;;;;;5000586;28;20038;-51
2023/08/16 04:02:37;;;;;;;17.45;15.85;;;22.10;99.90;;;;;;4999695;28;20058;-52
2023/08/16 04:05:11;;;;;;;17.98;16.10;;;22.00;99.90;;;;;;4999474;28;20069;-53
2023/08/16 04:07:38;;;;;;;17.77;15.73;;;22.00;99.90;;;;;;5014075;28;20113;-53
2023/08/16 04:10:05;;;;;;;16.73;15.05;;;21.90;99.90;;;;;;5014121;28;20042;-54
2023/08/16 04:12:31;;;;;;;20.90;18.10;;;21.90;99.90;;;;;;5017337;28;20069;-53
2023/08/16 04:14:57;;;;;;;22.55;20.15;;;21.90;99.90;;;;;;5016249;28;20065;-53
2023/08/16 04:17:22;;;;;;;18.98;17.17;;;21.90;99.90;;;;;;4989651;28;20397;-52
2023/08/16 04:19:48;;;;;;;22.65;20.25;;;21.90;99.90;;;;;;5010866;28;20351;-50
2023/08/16 04:22:14;;;;;;;19.48;17.60;;;21.80;99.90;;;;;;4988847;28;20046;-54
2023/08/16 04:24:39;;;;;;;21.92;19.50;;;21.50;99.90;;;;;;5013497;28;20065;-53
2023/08/16 04:27:06;;;;;;;19.17;17.35;;;;;;;;;;5012750;28;20034;-52
2023/08/16 04:29:32;;;;;;;19.77;17.63;;;;;;;;;;5010695;28;20473;-50
2023/08/16 04:31:58;;;;;;;20.67;18.55;;;21.30;99.90;;;;;;5012449;28;20083;-50
2023/08/16 04:34:23;;;;;;;22.73;17.95;;;21.30;99.90;;;;;;4977536;28;21116;-54
2023/08/16 04:36:49;;;;;;;25.40;18.35;;;21.40;99.90;;;;;;4997670;28;20413;-53
2023/08/16 04:39:15;;;;;;;21.90;17.88;;;21.50;99.90;;;;;;5011630;28;20041;-54
2023/08/16 04:41:40;;;;;;;21.33;17.65;;;21.50;99.90;;;;;;5013052;28;20504;-53
2023/08/16 04:44:06;;;;;;;18.15;16.08;;;21.70;99.90;;;;;;5000350;28;20490;-49
2023/08/16 04:46:32;;;;;;;16.85;15.25;;;21.90;99.90;;;;;;4994683;28;20042;-50
2023/08/16 04:48:58;;;;;;;17.05;15.38;;;22.00;99.90;;;;;;4995690;28;20026;-51
2023/08/16 04:51:24;;;;;;;18.35;14.77;;;22.10;99.90;;;;;;4995547;28;20035;-50
2023/08/16 04:53:49;;;;;;;15.82;14.07;;;22.00;99.90;;;;;;4992508;28;20145;-52
2023/08/16 04:56:15;;;;;;;15.82;13.93;;;22.00;99.90;;;;;;4994864;28;20042;-53
2023/08/16 04:58:41;;;;;;;18.50;14.95;;;21.90;99.90;;;;;;4994868;28;20030;-54
2023/08/16 05:01:06;;;;;;;15.45;13.93;;;22.00;99.90;;;;;;4994797;28;20030;-52
2023/08/16 05:03:32;;;;;;;15.15;13.63;;;21.90;99.90;;;;;;4994480;28;20050;-53
2023/08/16 05:06:03;;;;;;;14.68;13.10;;;21.90;99.90;;;;;;4994430;28;20022;-52
2023/08/16 05:08:30;;;;;;;16.87;13.03;;;21.80;99.90;;;;;;4989417;28;20096;-51
2023/08/16 05:10:57;;;;;;;14.30;12.57;;;21.80;99.90;;;;;;5009131;28;20030;-54
2023/08/16 05:13:23;;;;;;;16.63;13.88;;;22.00;99.90;;;;;;4993516;28;20038;-54
2023/08/16 05:15:48;;;;;;;15.85;12.55;;;22.00;99.90;;;;;;4995000;28;20029;-55
2023/08/16 05:18:14;;;;;;;13.73;11.65;;;22.00;99.90;;;;;;4995245;28;20026;-55
2023/08/16 05:20:40;;;;;;;12.63;11.40;;;22.00;99.90;;;;;;4999145;28;20166;-53
2023/08/16 05:23:06;;;;;;;11.43;10.23;;;22.00;99.90;;;;;;4989808;28;20033;-50
2023/08/16 05:25:32;;;;;;;14.27;10.45;;;22.00;99.90;;;;;;4993770;28;20374;-51
2023/08/16 05:27:58;;;;;;;11.27;10.18;;;22.00;99.90;;;;;;4989987;28;20026;-52
2023/08/16 05:30:25;;;;;;;10.85;9.60;;;22.20;99.90;;;;;;4993097;28;20030;-53
2023/08/16 05:32:51;;;;;;;11.25;10.15;;;;;;;;;;4995043;28;20036;-51
2023/08/16 05:35:18;;;;;;;10.73;9.63;;;;;;;;;;4950862;28;20046;-52
2023/08/16 05:37:43;;;;;;;13.55;10.43;;;22.60;99.90;;;;;;4976355;28;20173;-50
2023/08/16 05:40:10;;;;;;;12.35;10.68;;;22.80;99.90;;;;;;4995130;28;20073;-49
2023/08/16 05:42:36;;;;;;;11.63;10.48;;;22.90;99.90;;;;;;4976157;28;20050;-50
2023/08/16 05:45:01;;;;;;;9.98;9.07;;;22.90;99.90;;;;;;4994469;28;20084;-51
2023/08/16 05:47:27;;;;;;;13.43;10.75;;;;;;;;;;4977086;28;20116;-52
2023/08/16 05:49:53;;;;;;;11.45;10.25;;;22.90;99.90;;;;;;4995074;28;20037;-50
2023/08/16 05:52:19;;;;;;;14.60;10.60;;;23.00;99.90;;;;;;4977220;28;20030;-49
2023/08/16 05:54:44;;;;;;;10.88;9.85;;;23.10;99.90;;;;;;4976442;28;20045;-53
2023/08/16 05:57:10;;;;;;;13.27;10.35;;;23.10;99.90;;;;;;4960196;28;20041;-52
2023/08/16 05:59:36;;;;;;;10.98;9.80;;;22.90;99.90;;;;;;4994737;28;20023;-48
2023/08/16 06:02:02;;;;;;;12.00;10.55;;;22.80;99.90;;;;;;5009246;28;20038;-50
2023/08/16 06:04:28;;;;;;;11.20;10.10;;;22.80;99.90;;;;;;4994775;28;20046;-51
2023/08/16 06:06:54;;;;;;;10.63;9.60;;;22.70;99.90;;;;;;4994185;28;20065;-49
2023/08/16 06:09:19;;;;;;;11.70;10.48;;;22.60;99.90;;;;;;4994309;28;20093;-50
2023/08/16 06:11:45;;;;;;;12.30;10.88;;;22.80;99.90;;;;;;4993903;28;20030;-49
2023/08/16 06:14:11;;;;;;;12.10;10.52;;;22.80;99.90;;;;;;4993545;28;20038;-51
2023/08/16 06:16:37;;;;;;;11.85;10.57;;;22.90;99.90;;;;;;4975853;28;20039;-50
2023/08/16 06:19:02;;;;;;;12.95;10.18;;;22.90;99.90;;;;;;4994235;28;20089;-49
2023/08/16 06:21:28;;;;;;;11.75;10.55;;;22.70;99.90;;;;;;4992343;28;20114;-49
2023/08/16 06:23:56;;;;;;;12.63;11.43;;;22.60;99.90;;;;;;4976323;28;20049;-49
2023/08/16 06:26:22;;;;;;;13.25;11.45;;;22.60;99.90;;;;;;4975376;28;20101;-52
2023/08/16 06:28:48;;;;;;;13.43;12.00;;;22.60;99.90;;;;;;4964807;28;20026;-50
2023/08/16 06:31:15;;;;;;;13.60;10.98;;;22.80;99.90;;;;;;4978611;28;20060;-51
2023/08/16 06:33:41;;;;;;;14.07;12.43;;;23.00;99.90;;;;;;4994251;28;20080;-49
2023/08/16 06:36:07;;;;;;;12.25;10.90;;;23.20;99.90;;;;;;4993585;28;20026;-51
2023/08/16 06:38:33;;;;;;;13.60;12.18;;;23.50;99.90;;;;;;4989806;28;20072;-54
2023/08/16 06:40:58;;;;;;;10.98;9.90;;;23.60;99.90;;;;;;4989925;28;20482;-52
2023/08/16 06:43:24;;;;;;;12.70;11.13;;;23.60;99.90;;;;;;4990705;28;20049;-51
2023/08/16 06:45:50;;;;;;;13.65;11.50;;;23.70;99.90;;;;;;4995842;28;20418;-48
2023/08/16 06:48:16;;;;;;;12.65;11.10;;;23.60;99.90;;;;;;4992774;28;20045;-51
2023/08/16 06:50:41;;;;;;;12.95;11.65;;;23.50;99.90;;;;;;4990649;28;20129;-49
2023/08/16 06:53:07;;;;;;;15.55;11.85;;;23.20;99.90;;;;;;4992821;28;20033;-49
2023/08/16 06:55:35;;;;;;;12.10;10.93;;;23.30;99.90;;;;;;4991328;28;20046;-51
2023/08/16 06:58:05;;;;;;;14.80;12.45;;;23.30;99.90;;;;;;4992818;28;20026;-49
2023/08/16 07:00:31;;;;;;;11.48;10.40;;;23.20;99.90;;;;;;4990715;28;20054;-50
2023/08/16 07:02:58;;;;;;;17.27;11.43;;;23.20;99.90;;;;;;4988398;28;20036;-50
2023/08/16 07:05:26;;;;;;;12.73;11.27;;;23.10;99.90;;;;;;4990786;28;20108;-49
2023/08/16 07:07:52;;;;;;;13.18;11.80;;;23.00;99.90;;;;;;4977989;28;20047;-49
2023/08/16 07:10:18;;;;;;;12.55;11.00;;;23.00;99.90;;;;;;4959701;28;20134;-49
2023/08/16 07:12:44;;;;;;;13.13;11.80;;;22.90;99.90;;;;;;4980478;28;20070;-51
2023/08/16 07:15:13;;;;;;;12.20;10.85;;;23.00;99.90;;;;;;4949997;28;20067;-49
2023/08/16 07:17:39;;;;;;;13.65;11.85;;;22.90;99.90;;;;;;4969608;28;20050;-49
2023/08/16 07:20:08;;;;;;;13.18;10.80;;;22.80;99.90;;;;;;4964469;28;20031;-52
2023/08/16 07:22:37;;;;;;;12.20;10.95;;;23.00;99.90;;;;;;4977530;28;20047;-50
2023/08/16 07:25:05;;;;;;;17.13;11.00;;;23.00;99.90;;;;;;4957701;28;20407;-49
2023/08/16 07:27:31;;;;;;;12.32;11.18;;;22.90;99.90;;;;;;4962214;28;20047;-51
2023/08/16 07:29:56;;;;;;;12.35;11.13;;;22.80;99.90;;;;;;4963193;28;20039;-49
2023/08/16 07:32:23;;;;;;;11.82;10.02;;;22.70;99.90;;;;;;4964928;28;20039;-49
2023/08/16 07:34:49;;;;;;;11.55;10.32;;;22.70;99.90;;;;;;4968052;28;20041;-48
2023/08/16 07:37:14;;;;;;;11.13;10.02;;;22.60;99.90;;;;;;4963321;28;20467;-51
2023/08/16 07:39:40;;;;;;;12.88;10.55;;;22.50;99.90;;;;;;4987393;28;20035;-52
2023/08/16 07:42:07;;;;;;;12.93;10.15;;;22.40;99.90;;;;;;5005796;28;20118;-50
2023/08/16 07:44:34;;;;;;;11.55;10.55;;;22.30;99.90;;;;;;4991625;28;20038;-52
2023/08/16 07:47:00;;;;;;;13.02;11.50;;;22.30;99.90;;;;;;4992484;28;20073;-49
2023/08/16 07:49:26;;;;;;;11.77;10.55;;;22.40;99.90;;;;;;4991805;28;20045;-52
2023/08/16 07:51:55;;;;;;;11.48;10.27;;;22.50;99.90;;;;;;4990685;28;20043;-49
2023/08/16 09:06:11;;;;;;;8.73;7.93;;;23.70;99.90;;;;;;5269377;22;1375447;-53
2023/08/16 09:08:39;;;;;;;9.48;8.55;;;;;;;;;;5052417;28;20029;-51
2023/08/16 09:11:27;;;;;;;10.63;9.40;;;24.10;99.90;;;;;;5005264;28;20041;-51
2023/08/16 09:13:54;;;;;;;10.60;8.48;;;;;;;;;;5012249;28;20132;-52
2023/08/16 09:16:20;;;;;;;9.57;8.63;;;;;;;;;;4963339;28;20074;-52
2023/08/16 09:18:50;;;;;;;9.75;8.77;;;24.80;99.90;;;;;;5012532;28;20037;-51
2023/08/16 09:21:24;;;;;;;10.43;9.32;;;24.70;99.90;;;;;;5012229;28;20045;-51
2023/08/16 09:23:59;;;;;;;10.75;9.65;;;24.80;99.90;;;;;;5012577;28;20509;-50
2023/08/16 09:26:28;;;;;;;11.30;9.73;;;24.70;99.90;;;;;;5011976;28;20040;-51
2023/08/16 09:28:58;;;;;;;10.73;8.65;;;24.90;99.90;;;;;;5012154;28;20112;-53
2023/08/16 09:31:31;;;;;;;11.35;9.05;;;24.90;99.90;;;;;;5011798;28;20556;-53
2023/08/16 09:34:01;;;;;;;10.18;9.00;;;;;;;;;;5012489;28;20057;-52
2023/08/16 09:36:29;;;;;;;11.30;9.30;;;;;;;;;;5012027;28;20069;-51
2023/08/16 09:39:00;;;;;;;11.15;10.02;;;25.60;99.90;;;;;;5011932;28;20069;-52
2023/08/16 09:41:27;;;;;;;13.27;11.98;;;25.70;99.90;;;;;;5012701;28;20037;-51
2023/08/16 09:44:05;;;;;;;13.15;11.63;;;25.30;99.90;;;;;;5053391;28;20025;-50
2023/08/16 09:46:31;;;;;;;16.60;14.90;;;25.10;99.90;;;;;;5054129;28;20131;-51
2023/08/16 09:49:07;;;;;;;17.05;15.25;;;24.90;99.90;;;;;;5018736;28;20068;-52
2023/08/16 09:51:36;;;;;;;16.80;13.05;;;24.90;99.90;;;;;;5053661;28;20091;-50
2023/08/16 09:54:09;;;;;;;17.65;14.70;;;24.90;99.90;;;;;;5002296;28;20037;-52
2023/08/16 09:56:34;;;;;;;15.57;13.50;;;24.90;99.90;;;;;;5053455;28;20037;-53
2023/08/16 09:59:00;;;;;;;17.02;15.25;;;24.80;99.90;;;;;;5052257;28;20040;-52
2023/08/16 10:01:26;;;;;;;16.95;15.15;;;24.80;99.90;;;;;;5053733;28;20021;-53
2023/08/16 10:03:55;;;;;;;18.63;16.80;;;24.70;99.90;;;;;;5052200;28;20086;-53
2023/08/16 10:06:25;;;;;;;17.23;15.15;;;;;;;;;;5048615;28;20073;-50
2023/08/16 10:08:52;;;;;;;18.88;16.95;;;24.40;99.90;;;;;;5052999;28;20029;-52
2023/08/16 10:11:18;;;;;;;18.98;16.95;;;24.40;99.90;;;;;;5007350;28;20083;-53
2023/08/16 10:13:45;;;;;;;18.08;16.25;;;24.40;99.90;;;;;;5051841;28;20032;-52
2023/08/16 10:16:19;;;;;;;17.05;15.18;;;24.60;99.90;;;;;;5053160;28;20037;-53
2023/08/16 10:18:47;;;;;;;17.52;15.82;;;24.50;99.90;;;;;;5051458;28;20036;-50
2023/08/16 10:21:17;;;;;;;15.98;14.18;;;24.50;99.90;;;;;;5048124;28;20514;-54
2023/08/16 10:23:44;;;;;;;15.65;14.25;;;;;;;;;;5052005;28;20475;-51
2023/08/16 10:26:14;;;;;;;17.02;15.40;;;24.20;99.90;;;;;;5052314;28;20358;-50
2023/08/16 10:28:47;;;;;;;16.90;15.40;;;24.20;99.90;;;;;;5053411;28;20025;-52
2023/08/16 10:31:16;;;;;;;17.33;15.57;;;24.30;99.90;;;;;;5051159;28;20025;-51
2023/08/16 10:33:46;;;;;;;22.83;16.50;;;24.30;99.90;;;;;;5053330;28;20107;-49
2023/08/16 10:36:12;;;;;;;18.00;16.23;;;24.40;99.90;;;;;;5052345;28;20056;-52
2023/08/16 10:38:41;;;;;;;18.58;16.88;;;24.60;99.90;;;;;;5052663;28;20025;-51
2023/08/16 10:41:12;;;;;;;18.48;16.70;;;24.80;99.90;;;;;;5052720;28;20029;-52
2023/08/16 10:43:38;;;;;;;20.23;18.13;;;25.00;99.90;;;;;;4980466;28;20568;-50
2023/08/16 10:46:04;;;;;;;20.83;18.63;;;25.00;99.90;;;;;;4963906;28;20038;-50
2023/08/16 10:48:35;;;;;;;19.73;17.92;;;25.30;99.90;;;;;;4987691;28;20034;-52
2023/08/16 10:51:06;;;;;;;21.40;19.23;;;25.60;99.90;;;;;;4982063;28;20049;-50
2023/08/16 10:53:34;;;;;;;20.40;18.40;;;25.90;99.90;;;;;;4976221;28;20174;-53
2023/08/16 10:56:05;;;;;;;20.33;18.40;;;25.60;99.90;;;;;;4997135;28;20046;-53
2023/08/16 10:58:31;;;;;;;19.63;17.83;;;25.70;99.90;;;;;;4986209;28;20117;-52
2023/08/16 11:00:58;;;;;;;20.00;18.05;;;;;;;;;;4968719;28;20117;-52
2023/08/16 11:03:31;;;;;;;21.92;19.80;;;25.90;99.90;;;;;;4984767;28;20038;-50
2023/08/16 11:06:00;;;;;;;22.30;20.27;;;25.90;99.90;;;;;;4993083;28;20070;-51
2023/08/16 11:08:30;;;;;;;21.85;19.63;;;25.90;99.90;;;;;;4994136;28;20049;-49
2023/08/16 11:10:57;;;;;;;22.27;19.77;;;;;;;;;;4993151;28;20044;-53
2023/08/16 11:13:23;;;;;;;20.33;18.42;;;26.40;99.90;;;;;;4987578;28;20031;-51
2023/08/16 11:15:49;;;;;;;16.65;15.15;;;26.40;99.90;;;;;;5051530;28;20055;-51
2023/08/16 11:18:26;;;;;;;18.52;16.85;;;26.00;99.90;;;;;;5017284;28;20395;-51
2023/08/16 11:20:52;;;;;;;19.63;17.65;;;26.30;99.90;;;;;;5051238;28;20067;-50
2023/08/16 11:23:17;;;;;;;16.15;14.63;;;26.40;99.90;;;;;;4990233;28;20050;-51
2023/08/16 11:25:44;;;;;;;17.27;15.75;;;26.10;99.90;;;;;;4989732;28;20050;-52
2023/08/16 11:28:10;;;;;;;17.77;15.98;;;25.90;99.90;;;;;;4990020;28;20047;-54
2023/08/16 11:30:36;;;;;;;16.60;14.93;;;;;;;;;;4989686;28;20058;-55
2023/08/16 11:33:02;;;;;;;16.70;15.20;;;26.90;99.90;;;;;;4989785;28;20034;-56
2023/08/16 11:35:28;;;;;;;18.15;16.45;;;27.10;99.90;;;;;;4957522;28;20476;-55
2023/08/16 11:37:54;;;;;;;17.80;16.20;;;27.10;99.90;;;;;;4989378;28;20172;-53
2023/08/16 11:40:23;;;;;;;18.95;17.20;;;27.00;99.90;;;;;;4957718;28;20133;-52
2023/08/16 11:42:50;;;;;;;17.73;16.02;;;26.60;99.90;;;;;;4988659;28;20042;-55
2023/08/16 11:45:21;;;;;;;18.73;16.92;;;26.40;99.90;;;;;;4989526;28;20093;-54
2023/08/16 11:47:54;;;;;;;18.02;16.17;;;26.80;99.90;;;;;;4973677;28;20686;-53
2023/08/16 11:50:22;;;;;;;19.60;17.65;;;26.80;99.90;;;;;;4986211;28;20775;-54
2023/08/16 11:53:00;;;;;;;21.38;18.88;;;26.60;99.90;;;;;;4961958;28;20493;-54
2023/08/16 11:55:29;;;;;;;18.25;16.50;;;26.90;99.90;;;;;;5043925;28;20567;-53
2023/08/16 11:58:01;;;;;;;18.13;16.33;;;;;;;;;;5048731;28;20067;-53
2023/08/16 12:00:31;;;;;;;19.00;17.15;;;27.60;99.90;;;;;;5044273;28;20484;-54
2023/08/16 12:02:57;;;;;;;36.53;26.70;;;27.50;99.90;;;;;;5046565;28;20380;-54
2023/08/16 12:05:25;;;;;;;19.23;17.23;;;27.40;99.90;;;;;;5012938;28;20051;-57
2023/08/16 12:07:51;;;;;;;19.98;17.88;;;27.10;99.90;;;;;;5046143;28;20063;-58
2023/08/16 12:10:26;;;;;;;20.27;18.38;;;26.60;99.90;;;;;;5045138;28;20025;-54
2023/08/16 12:12:53;;;;;;;20.25;18.13;;;27.00;99.90;;;;;;4997279;28;20120;-52
2023/08/16 12:15:24;;;;;;;19.67;17.88;;;27.70;99.90;;;;;;5050332;28;20040;-60
2023/08/16 12:17:51;;;;;;;19.25;17.40;;;;;;;;;;5016978;28;20041;-57
2023/08/16 12:20:17;;;;;;;19.75;17.40;;;;;;;;;;5003161;28;20037;-52
2023/08/16 12:22:46;;;;;;;18.38;16.77;;;28.40;99.90;;;;;;5046296;28;20496;-57
2023/08/16 12:25:12;;;;;;;20.17;18.15;;;28.70;99.90;;;;;;5050232;28;20029;-57
2023/08/16 12:27:38;;;;;;;21.35;19.15;;;28.80;99.90;;;;;;5051026;28;20082;-55
2023/08/16 12:30:05;;;;;;;19.25;17.45;;;28.90;99.90;;;;;;5050514;28;20425;-55
2023/08/16 12:32:31;;;;;;;18.70;16.90;;;28.50;99.90;;;;;;5051436;28;20031;-57
2023/08/16 12:34:58;;;;;;;18.08;16.27;;;;;;;;;;5014565;28;20065;-56
2023/08/16 12:37:23;;;;;;;16.65;15.10;;;29.40;99.90;;;;;;5050570;28;20048;-58
2023/08/16 12:39:49;;;;;;;16.38;14.77;;;29.40;99.90;;;;;;5052756;28;20781;-54
2023/08/16 12:42:15;;;;;;;17.73;16.08;;;28.80;99.90;;;;;;5052001;28;20053;-56
2023/08/16 12:44:40;;;;;;;18.83;16.88;;;29.00;99.90;;;;;;5005216;28;20073;-56
2023/08/16 12:47:06;;;;;;;15.13;13.73;;;29.10;99.90;;;;;;5054640;28;20472;-56
2023/08/16 12:49:32;;;;;;;15.55;14.02;;;;;;;;;;5049736;28;20066;-52
2023/08/16 12:51:58;;;;;;;14.35;13.05;;;;;;;;;;5054145;28;20056;-54
2023/08/16 12:54:24;;;;;;;14.88;13.45;;;;;;;;;;5054999;28;20055;-57
2023/08/16 12:56:51;;;;;;;14.27;12.82;;;31.00;99.90;;;;;;5019242;28;20087;-54
2023/08/16 12:59:16;;;;;;;14.57;13.23;;;30.80;99.90;;;;;;5055648;28;20029;-52
2023/08/16 13:01:42;;;;;;;13.90;12.20;;;30.40;99.90;;;;;;5003279;28;20060;-56
2023/08/16 13:04:08;;;;;;;13.90;12.60;;;30.40;99.90;;;;;;5054333;28;20033;-57
2023/08/16 13:06:35;;;;;;;14.10;12.70;;;;;;;;;;5054540;28;20048;-54
2023/08/16 13:09:01;;;;;;;14.82;13.32;;;29.50;99.90;;;;;;5054032;28;20143;-53
2023/08/16 13:11:26;;;;;;;13.32;12.02;;;29.40;99.90;;;;;;5054310;28;20016;-57
2023/08/16 13:13:52;;;;;;;12.85;10.73;;;30.20;99.90;;;;;;5054098;28;20045;-56
2023/08/16 13:16:18;;;;;;;12.55;11.32;;;29.70;99.90;;;;;;5014448;28;20049;-54
2023/08/16 13:18:44;;;;;;;12.90;11.70;;;29.30;99.90;;;;;;5017683;28;20040;-55
2023/08/16 13:21:10;;;;;;;13.98;12.68;;;;;;;;;;5018565;28;20361;-55
2023/08/16 13:23:36;;;;;;;13.70;12.10;;;;;;;;;;5050779;28;20043;-53
2023/08/16 13:26:02;;;;;;;14.10;12.85;;;;;;;;;;5052071;28;20025;-56
2023/08/16 13:28:28;;;;;;;13.88;12.60;;;30.60;99.90;;;;;;5020647;28;20044;-54
2023/08/16 13:30:53;;;;;;;14.25;12.85;;;30.80;99.90;;;;;;5053332;28;20047;-52
2023/08/16 13:33:19;;;;;;;16.13;14.52;;;30.20;99.90;;;;;;5053751;28;20035;-53
2023/08/16 13:35:46;;;;;;;18.10;14.77;;;30.10;99.90;;;;;;5018817;28;20045;-52
2023/08/16 13:38:12;;;;;;;17.63;15.85;;;;;;;;;;5053658;28;20032;-55
2023/08/16 13:40:40;;;;;;;17.08;15.35;;;29.40;99.90;;;;;;4999260;28;20435;-56
2023/08/16 13:43:25;;;;;;;15.52;13.93;;;;;;;;;;4990381;28;20149;-55
2023/08/16 13:45:51;;;;;;;16.65;14.95;;;28.90;99.90;;;;;;4998617;28;20192;-55
2023/08/16 13:48:17;;;;;;;16.40;14.82;;;28.90;99.90;;;;;;5023679;28;20446;-56
2023/08/16 13:50:42;;;;;;;15.40;13.90;;;28.70;99.90;;;;;;5029640;28;20034;-55